createdAt,value
2023-03-02T00:01:46.794Z,102547.63
2023-03-02T00:04:20.788Z,102545.84
2023-03-02T00:06:49.660Z,102549.50
2023-03-02T00:09:18.334Z,102541.56
2023-03-02T00:11:47.829Z,102546.84
2023-03-02T00:14:15.559Z,102548.63
2023-03-02T00:16:43.350Z,102546.91
2023-03-02T00:19:11.065Z,102548.75
2023-03-02T00:21:38.824Z,102539.00
2023-03-02T00:24:07.456Z,102544.44
2023-03-02T00:26:35.442Z,102533.00
2023-03-02T00:29:05.666Z,102532.00
2023-03-02T00:31:33.504Z,102529.34
2023-03-02T00:34:01.380Z,102528.47
2023-03-02T00:36:29.089Z,102525.75
2023-03-02T00:38:57.455Z,102531.13
2023-03-02T00:41:25.229Z,102532.28
2023-03-02T00:43:53.000Z,102525.13
2023-03-02T00:46:24.876Z,102527.81
2023-03-02T00:48:53.388Z,102524.28
2023-03-02T00:51:21.462Z,102522.47
2023-03-02T00:53:49.249Z,102519.88
2023-03-02T00:56:16.991Z,102511.88
2023-03-02T00:58:44.674Z,102516.25
2023-03-02T01:01:15.896Z,102519.06
2023-03-02T01:03:48.197Z,102515.50
2023-03-02T01:06:17.332Z,102521.06
2023-03-02T01:08:45.729Z,102522.03
2023-03-02T01:11:15.065Z,102526.34
2023-03-02T01:13:42.971Z,102522.84
2023-03-02T01:16:11.837Z,102515.72
2023-03-02T01:18:39.866Z,102518.50
2023-03-02T01:21:12.011Z,102519.31
2023-03-02T01:23:39.784Z,102521.06
2023-03-02T01:26:08.213Z,102517.59
2023-03-02T01:28:35.964Z,102529.19
2023-03-02T01:31:04.670Z,102529.25
2023-03-02T01:33:32.819Z,102525.78
2023-03-02T01:36:00.887Z,102524.81
2023-03-02T01:38:30.143Z,102525.63
2023-03-02T01:40:57.972Z,102518.56
2023-03-02T01:43:25.774Z,102516.03
2023-03-02T01:45:58.170Z,102518.66
2023-03-02T01:48:30.573Z,102520.44
2023-03-02T01:50:59.435Z,102514.22
2023-03-02T01:53:32.268Z,102526.72
2023-03-02T01:56:01.388Z,102516.16
2023-03-02T01:58:32.759Z,102521.31
2023-03-02T02:01:01.673Z,102508.00
2023-03-02T02:03:31.771Z,102516.13
2023-03-02T02:06:10.434Z,102506.38
2023-03-02T02:08:40.119Z,102499.31
2023-03-02T02:11:08.359Z,102501.81
2023-03-02T02:13:36.324Z,102507.19
2023-03-02T02:16:04.922Z,102496.75
2023-03-02T02:18:32.718Z,102495.03
2023-03-02T02:21:00.588Z,102490.53
2023-03-02T02:23:32.745Z,102495.13
2023-03-02T02:26:08.693Z,102493.22
2023-03-02T02:28:41.821Z,102489.69
2023-03-02T02:31:15.618Z,102483.53
2023-03-02T02:33:46.879Z,102490.59
2023-03-02T02:36:19.633Z,102493.22
2023-03-02T02:38:51.040Z,102482.47
2023-03-02T02:41:22.913Z,102479.00
2023-03-02T02:43:51.446Z,102480.75
2023-03-02T02:46:19.543Z,102480.63
2023-03-02T02:48:47.388Z,102481.53
2023-03-02T02:51:30.598Z,102473.66
2023-03-02T02:54:00.588Z,102469.16
2023-03-02T02:56:34.582Z,102471.78
2023-03-02T02:59:07.982Z,102469.13
2023-03-02T03:01:37.505Z,102466.53
2023-03-02T03:04:07.479Z,102468.25
2023-03-02T03:06:42.467Z,102465.50
2023-03-02T03:09:11.407Z,102461.09
2023-03-02T03:11:44.449Z,102460.13
2023-03-02T03:14:15.342Z,102465.25
2023-03-02T03:16:45.818Z,102461.00
2023-03-02T03:19:19.239Z,102467.31
2023-03-02T03:21:50.519Z,102466.19
2023-03-02T03:24:18.820Z,102461.16
2023-03-02T03:26:47.999Z,102458.47
2023-03-02T03:29:18.131Z,102457.63
2023-03-02T03:31:45.883Z,102458.44
2023-03-02T03:34:13.734Z,102460.25
2023-03-02T03:36:43.259Z,102457.72
2023-03-02T03:39:12.676Z,102464.78
2023-03-02T03:41:40.899Z,102464.63
2023-03-02T03:44:10.874Z,102471.84
2023-03-02T03:46:38.994Z,102466.53
2023-03-02T03:49:07.099Z,102468.25
2023-03-02T03:51:35.301Z,102459.38
2023-03-02T03:54:04.064Z,102463.91
2023-03-02T03:56:34.640Z,102458.56
2023-03-02T03:59:08.611Z,102462.00
2023-03-02T04:01:40.120Z,102456.56
2023-03-02T04:04:10.354Z,102466.53
2023-03-02T04:06:38.574Z,102466.34
2023-03-02T04:09:07.052Z,102464.72
2023-03-02T04:11:36.718Z,102469.25
2023-03-02T04:14:05.493Z,102468.41
2023-03-02T04:16:34.038Z,102463.13
2023-03-02T04:19:04.725Z,102464.97
2023-03-02T04:21:32.482Z,102466.72
2023-03-02T04:24:00.167Z,102475.53
2023-03-02T04:26:27.968Z,102468.53
2023-03-02T04:28:55.768Z,102470.31
2023-03-02T04:31:23.650Z,102473.94
2023-03-02T04:33:51.469Z,102473.06
2023-03-02T04:36:20.725Z,102481.91
2023-03-02T04:38:48.872Z,102473.06
2023-03-02T04:41:17.388Z,102476.59
2023-03-02T04:43:45.172Z,102468.72
2023-03-02T04:46:15.849Z,102473.06
2023-03-02T04:48:43.610Z,102469.59
2023-03-02T04:51:18.280Z,102463.28
2023-03-02T04:53:47.414Z,102460.63
2023-03-02T04:56:15.123Z,102457.03
2023-03-02T04:58:42.889Z,102456.00
2023-03-02T05:01:11.274Z,102456.94
2023-03-02T05:03:39.170Z,102457.91
2023-03-02T05:06:07.424Z,102455.28
2023-03-02T05:08:35.807Z,102463.34
2023-03-02T05:11:06.385Z,102464.16
2023-03-02T05:13:34.647Z,102474.03
2023-03-02T05:16:02.706Z,102464.31
2023-03-02T05:18:31.202Z,102457.25
2023-03-02T05:20:59.069Z,102463.53
2023-03-02T05:23:28.601Z,102465.28
2023-03-02T05:25:57.661Z,102455.56
2023-03-02T05:28:27.416Z,102455.69
2023-03-02T05:30:55.484Z,102450.31
2023-03-02T05:33:23.516Z,102452.97
2023-03-02T05:35:51.317Z,102444.13
2023-03-02T05:38:19.147Z,102453.03
2023-03-02T05:40:47.364Z,102444.25
2023-03-02T05:43:18.889Z,102451.41
2023-03-02T05:45:48.459Z,102453.25
2023-03-02T05:48:16.786Z,102453.19
2023-03-02T05:50:44.824Z,102450.53
2023-03-02T05:53:12.625Z,102457.69
2023-03-02T05:55:40.387Z,102459.50
2023-03-02T05:58:09.752Z,102466.47
2023-03-02T06:00:37.508Z,102466.59
2023-03-02T06:03:06.772Z,102474.69
2023-03-02T06:05:35.198Z,102459.59
2023-03-02T06:08:03.291Z,102470.19
2023-03-02T06:10:31.247Z,102471.03
2023-03-02T06:12:59.033Z,102472.94
2023-03-02T06:15:29.788Z,102472.03
2023-03-02T06:17:57.667Z,102477.38
2023-03-02T06:20:26.965Z,102476.59
2023-03-02T06:22:54.768Z,102483.63
2023-03-02T06:25:24.792Z,102486.28
2023-03-02T06:27:53.852Z,102481.00
2023-03-02T06:30:24.746Z,102483.53
2023-03-02T06:32:52.943Z,102489.00
2023-03-02T06:35:21.243Z,102490.91
2023-03-02T06:37:50.673Z,102489.94
2023-03-02T06:40:18.869Z,102491.81
2023-03-02T06:42:46.661Z,102490.03
2023-03-02T06:45:14.588Z,102498.94
2023-03-02T06:47:42.531Z,102500.66
2023-03-02T06:50:11.946Z,102492.78
2023-03-02T06:52:39.919Z,102497.22
2023-03-02T06:55:09.992Z,102498.91
2023-03-02T06:57:37.805Z,102504.28
2023-03-02T07:00:09.984Z,102499.84
2023-03-02T07:02:38.401Z,102503.31
2023-03-02T07:05:07.756Z,102505.16
2023-03-02T07:07:35.539Z,102504.03
2023-03-02T07:10:03.429Z,102503.13
2023-03-02T07:12:32.861Z,102501.44
2023-03-02T07:15:00.608Z,102490.81
2023-03-02T07:17:28.342Z,102501.41
2023-03-02T07:19:56.109Z,102496.88
2023-03-02T07:22:23.846Z,102502.94
2023-03-02T07:24:51.580Z,102502.94
2023-03-02T07:27:19.351Z,102505.53
2023-03-02T07:29:48.459Z,102508.22
2023-03-02T07:32:16.226Z,102503.78
2023-03-02T07:34:44.006Z,102508.28
2023-03-02T07:37:11.755Z,102501.97
2023-03-02T07:39:39.504Z,102509.06
2023-03-02T07:42:08.890Z,102506.41
2023-03-02T07:44:36.704Z,102503.47
2023-03-02T07:47:06.376Z,102509.66
2023-03-02T07:49:35.349Z,102493.50
2023-03-02T07:52:03.527Z,102504.94
2023-03-02T07:54:31.513Z,102503.00
2023-03-02T07:56:59.630Z,102502.00
2023-03-02T07:59:30.220Z,102502.81
2023-03-02T08:01:58.644Z,102502.66
2023-03-02T08:04:28.066Z,102509.53
2023-03-02T08:06:55.835Z,102513.00
2023-03-02T08:09:23.651Z,102501.22
2023-03-02T08:11:51.429Z,102504.63
2023-03-02T08:14:19.224Z,102505.53
2023-03-02T08:16:47.034Z,102503.53
2023-03-02T08:19:14.844Z,102508.78
2023-03-02T08:21:44.189Z,102505.94
2023-03-02T08:24:12.515Z,102506.59
2023-03-02T08:26:40.698Z,102507.16
2023-03-02T08:29:08.609Z,102506.22
2023-03-02T08:31:36.717Z,102510.31
2023-03-02T08:34:04.918Z,102511.78
2023-03-02T08:36:33.079Z,102500.81
2023-03-02T08:39:02.450Z,102506.78
2023-03-02T08:41:30.802Z,102502.72
2023-03-02T08:43:58.917Z,102504.31
2023-03-02T08:46:26.722Z,102503.34
2023-03-02T08:48:54.720Z,102504.84
2023-03-02T08:51:24.626Z,102504.47
2023-03-02T08:53:55.182Z,102498.09
2023-03-02T08:56:26.051Z,102497.97
2023-03-02T08:58:55.406Z,102487.09
2023-03-02T09:01:25.496Z,102491.44
2023-03-02T09:03:53.692Z,102484.94
2023-03-02T09:06:21.665Z,102481.81
2023-03-02T09:08:49.937Z,102487.69
2023-03-02T09:11:18.108Z,102488.72
2023-03-02T09:13:47.242Z,102491.00
2023-03-02T09:16:15.505Z,102491.72
2023-03-02T09:18:43.344Z,102483.81
2023-03-02T09:21:11.129Z,102476.69
2023-03-02T09:23:38.953Z,102470.81
2023-03-02T09:26:06.948Z,102475.75
2023-03-02T09:28:36.050Z,102468.16
2023-03-02T09:31:08.006Z,102480.44
2023-03-02T09:33:36.017Z,102485.66
2023-03-02T09:36:07.550Z,102473.81
2023-03-02T09:38:35.322Z,102484.97
2023-03-02T09:41:23.936Z,102480.97
2023-03-02T09:44:01.698Z,102482.34
2023-03-02T09:46:35.641Z,102494.34
2023-03-02T09:49:20.544Z,102486.41
2023-03-02T09:51:59.715Z,102486.00
2023-03-02T09:54:27.683Z,102487.44
2023-03-02T09:56:57.894Z,102481.81
2023-03-02T09:59:30.392Z,102494.91
2023-03-02T10:02:06.266Z,102483.78
2023-03-02T10:04:39.552Z,102484.78
2023-03-02T10:07:15.191Z,102480.78
2023-03-02T10:09:44.199Z,102477.69
2023-03-02T10:12:36.915Z,102483.63
2023-03-02T10:15:11.673Z,102481.94
2023-03-02T10:17:54.311Z,102479.75
2023-03-02T10:20:34.173Z,102474.22
2023-03-02T10:23:11.684Z,102483.69
2023-03-02T10:25:48.696Z,102475.38
2023-03-02T10:28:20.595Z,102465.78
2023-03-02T10:30:55.274Z,102464.00
2023-03-02T10:33:24.904Z,102461.41
2023-03-02T10:35:54.472Z,102468.47
2023-03-02T10:38:24.436Z,102460.84
2023-03-02T10:40:59.974Z,102456.81
2023-03-02T10:43:32.750Z,102460.00
2023-03-02T10:46:02.550Z,102446.41
2023-03-02T10:48:31.936Z,102448.66
2023-03-02T10:51:00.663Z,102451.72
2023-03-02T10:53:29.126Z,102446.75
2023-03-02T10:55:57.018Z,102446.66
2023-03-02T10:58:30.381Z,102445.16
2023-03-02T11:01:00.273Z,102441.44
2023-03-02T11:03:28.581Z,102452.16
2023-03-02T11:06:00.411Z,102440.00
2023-03-02T11:08:29.357Z,102441.16
2023-03-02T11:11:01.224Z,102436.66
2023-03-02T11:13:32.298Z,102440.28
2023-03-02T11:16:01.730Z,102435.31
2023-03-02T11:18:34.089Z,102441.75
2023-03-02T11:21:06.832Z,102440.09
2023-03-02T11:23:42.165Z,102435.03
2023-03-02T11:26:19.356Z,102431.47
2023-03-02T11:28:52.653Z,102436.16
2023-03-02T11:31:29.687Z,102427.00
2023-03-02T11:34:17.896Z,102429.06
2023-03-02T11:36:58.623Z,102420.19
2023-03-02T11:39:33.184Z,102431.38
2023-03-02T11:42:01.045Z,102423.56
2023-03-02T11:44:29.832Z,102423.78
2023-03-02T11:47:01.990Z,102417.63
2023-03-02T11:49:40.715Z,102422.16
2023-03-02T11:52:19.908Z,102419.03
2023-03-02T11:54:53.951Z,102415.78
2023-03-02T11:57:26.685Z,102418.56
2023-03-02T11:59:56.098Z,102419.88
2023-03-02T12:02:24.177Z,102411.97
2023-03-02T12:05:03.064Z,102412.78
2023-03-02T12:07:32.474Z,102412.44
2023-03-02T12:10:03.220Z,102405.78
2023-03-02T12:12:36.226Z,102406.84
2023-03-02T12:15:04.515Z,102412.34
2023-03-02T12:17:35.148Z,102408.75
2023-03-02T12:20:24.455Z,102408.50
2023-03-02T12:22:54.389Z,102409.78
2023-03-02T12:25:40.453Z,102406.50
2023-03-02T12:28:27.066Z,102402.13
2023-03-02T12:31:03.754Z,102399.66
2023-03-02T12:33:31.670Z,102399.06
2023-03-02T12:36:06.598Z,102396.34
2023-03-02T12:38:39.569Z,102392.78
2023-03-02T12:41:27.527Z,102396.25
2023-03-02T12:44:28.745Z,102385.50
2023-03-02T12:46:57.485Z,102395.97
2023-03-02T12:49:45.638Z,102379.84
2023-03-02T12:52:24.160Z,102370.50
2023-03-02T12:55:02.704Z,102371.25
2023-03-02T12:57:31.066Z,102364.63
2023-03-02T13:00:01.061Z,102368.88
2023-03-02T13:02:30.699Z,102364.84
2023-03-02T13:05:00.598Z,102360.91
2023-03-02T13:07:35.487Z,102358.88
2023-03-02T13:10:10.731Z,102356.06
2023-03-02T13:12:45.150Z,102348.38
2023-03-02T13:15:17.048Z,102341.81
2023-03-02T13:17:45.455Z,102343.56
2023-03-02T13:20:15.861Z,102338.03
2023-03-02T13:22:43.840Z,102344.16
2023-03-02T13:25:23.682Z,102339.31
2023-03-02T13:27:56.005Z,102339.31
2023-03-02T13:30:27.243Z,102339.09
2023-03-02T13:33:01.022Z,102338.47
2023-03-02T13:35:31.442Z,102331.09
2023-03-02T13:38:03.090Z,102333.78
2023-03-02T13:40:44.827Z,102336.31
2023-03-02T13:43:32.274Z,102333.59
2023-03-02T13:46:01.612Z,102326.06
2023-03-02T13:48:30.585Z,102322.88
2023-03-02T13:51:00.454Z,102318.94
2023-03-02T13:53:31.053Z,102328.81
2023-03-02T13:56:01.274Z,102324.13
2023-03-02T13:58:30.372Z,102323.91
2023-03-02T14:00:58.408Z,102310.00
2023-03-02T14:03:28.259Z,102315.28
2023-03-02T14:05:57.699Z,102311.25
2023-03-02T14:08:25.568Z,102304.94
2023-03-02T14:10:57.236Z,102307.88
2023-03-02T14:13:31.499Z,102303.25
2023-03-02T14:15:59.415Z,102302.06
2023-03-02T14:18:37.125Z,102301.00
2023-03-02T14:21:05.778Z,102293.38
2023-03-02T14:23:33.784Z,102292.00
2023-03-02T14:26:01.703Z,102298.00
2023-03-02T14:28:35.292Z,102290.56
2023-03-02T14:31:03.168Z,102294.13
2023-03-02T14:33:31.020Z,102287.69
2023-03-02T14:35:59.725Z,102295.50
2023-03-02T14:38:28.822Z,102293.69
2023-03-02T14:40:56.671Z,102287.44
2023-03-02T14:43:25.282Z,102288.31
2023-03-02T14:45:54.580Z,102291.91
2023-03-02T14:48:22.502Z,102291.31
2023-03-02T14:50:52.449Z,102285.56
2023-03-02T14:53:27.369Z,102284.69
2023-03-02T14:55:55.197Z,102277.22
2023-03-02T14:58:30.649Z,102281.38
2023-03-02T15:00:59.790Z,102277.28
2023-03-02T15:03:28.175Z,102272.66
2023-03-02T15:06:01.420Z,102274.41
2023-03-02T15:08:29.992Z,102277.28
2023-03-02T15:10:58.100Z,102274.94
2023-03-02T15:13:25.841Z,102274.22
2023-03-02T15:15:53.704Z,102277.53
2023-03-02T15:18:22.859Z,102280.22
2023-03-02T15:20:50.565Z,102275.38
2023-03-02T15:23:18.280Z,102273.47
2023-03-02T15:25:46.042Z,102272.75
2023-03-02T15:28:13.849Z,102268.66
2023-03-02T15:30:41.745Z,102272.19
2023-03-02T15:33:09.544Z,102268.66
2023-03-02T15:35:39.660Z,102268.09
2023-03-02T15:38:07.858Z,102268.56
2023-03-02T15:40:37.089Z,102268.09
2023-03-02T15:43:05.007Z,102272.63
2023-03-02T15:45:32.789Z,102270.34
2023-03-02T15:48:00.629Z,102265.03
2023-03-02T15:50:28.399Z,102274.94
2023-03-02T15:52:58.405Z,102264.56
2023-03-02T15:55:27.112Z,102269.06
2023-03-02T15:57:58.016Z,102267.16
2023-03-02T16:00:26.173Z,102276.34
2023-03-02T16:02:54.025Z,102272.81
2023-03-02T16:05:21.868Z,102273.75
2023-03-02T16:07:49.638Z,102281.56
2023-03-02T16:10:20.740Z,102279.72
2023-03-02T16:12:48.477Z,102283.44
2023-03-02T16:15:16.241Z,102282.75
2023-03-02T16:17:44.116Z,102288.03
2023-03-02T16:20:13.139Z,102289.88
2023-03-02T16:22:40.859Z,102295.53
2023-03-02T16:25:09.250Z,102306.69
2023-03-02T16:27:38.447Z,102299.59
2023-03-02T16:30:07.112Z,102292.38
2023-03-02T16:32:34.944Z,102302.28
2023-03-02T16:35:02.653Z,102309.84
2023-03-02T16:37:30.470Z,102305.31
2023-03-02T16:39:58.262Z,102313.78
2023-03-02T16:42:26.314Z,102315.47
2023-03-02T16:44:55.459Z,102316.41
2023-03-02T16:47:23.230Z,102311.91
2023-03-02T16:49:51.066Z,102330.28
2023-03-02T16:52:18.829Z,102329.25
2023-03-02T16:54:46.646Z,102320.75
2023-03-02T16:57:14.387Z,102323.22
2023-03-02T16:59:42.347Z,102333.41
2023-03-02T17:02:12.611Z,102331.63
2023-03-02T17:04:40.609Z,102337.81
2023-03-02T17:07:09.404Z,102331.50
2023-03-02T17:09:41.370Z,102333.66
2023-03-02T17:12:09.388Z,102339.50
2023-03-02T17:14:37.155Z,102344.16
2023-03-02T17:17:04.999Z,102340.44
2023-03-02T17:19:34.228Z,102339.78
2023-03-02T17:22:03.212Z,102346.28
2023-03-02T17:24:31.522Z,102350.06
2023-03-02T17:26:59.250Z,102353.72
2023-03-02T17:29:27.076Z,102346.63
2023-03-02T17:31:54.984Z,102351.38
2023-03-02T17:34:23.007Z,102358.72
2023-03-02T17:36:52.111Z,102357.06
2023-03-02T17:39:19.870Z,102364.56
2023-03-02T17:41:50.145Z,102368.50
2023-03-02T17:44:17.891Z,102373.88
2023-03-02T17:46:46.559Z,102382.03
2023-03-02T17:49:14.660Z,102376.19
2023-03-02T17:51:42.421Z,102376.25
2023-03-02T17:54:12.776Z,102386.06
2023-03-02T17:56:40.580Z,102391.47
2023-03-02T17:59:08.380Z,102385.34
2023-03-02T18:01:36.453Z,102389.13
2023-03-02T18:04:04.911Z,102397.47
2023-03-02T18:06:32.931Z,102402.22
2023-03-02T18:09:00.785Z,102403.06
2023-03-02T18:11:30.103Z,102414.97
2023-03-02T18:13:59.148Z,102414.31
2023-03-02T18:16:29.209Z,102409.19
2023-03-02T18:18:57.580Z,102413.63
2023-03-02T18:21:25.377Z,102416.25
2023-03-02T18:23:53.560Z,102420.69
2023-03-02T18:26:22.006Z,102426.28
2023-03-02T18:28:51.447Z,102418.38
2023-03-02T18:31:20.201Z,102431.06
2023-03-02T18:33:48.626Z,102433.78
2023-03-02T18:36:16.811Z,102425.00
2023-03-02T18:38:44.659Z,102436.75
2023-03-02T18:41:13.834Z,102434.06
2023-03-02T18:43:43.211Z,102435.41
2023-03-02T18:46:19.206Z,102436.34
2023-03-02T18:48:47.460Z,102441.78
2023-03-02T18:51:17.110Z,102443.38
2023-03-02T18:53:46.082Z,102441.66
2023-03-02T18:56:14.189Z,102448.47
2023-03-02T18:58:42.413Z,102449.63
2023-03-02T19:01:10.443Z,102445.25
2023-03-02T19:03:41.928Z,102449.69
2023-03-02T19:06:10.071Z,102450.81
2023-03-02T19:08:38.079Z,102448.97
2023-03-02T19:11:06.598Z,102448.13
2023-03-02T19:13:34.415Z,102445.34
2023-03-02T19:16:02.957Z,102453.50
2023-03-02T19:18:34.367Z,102452.94
2023-03-02T19:21:04.943Z,102451.41
2023-03-02T19:23:33.184Z,102449.78
2023-03-02T19:26:01.030Z,102453.41
2023-03-02T19:28:28.826Z,102457.03
2023-03-02T19:30:56.579Z,102456.28
2023-03-02T19:33:24.904Z,102460.16
2023-03-02T19:35:52.784Z,102456.69
2023-03-02T19:38:22.730Z,102455.84
2023-03-02T19:40:52.118Z,102451.38
2023-03-02T19:43:20.372Z,102448.00
2023-03-02T19:45:48.240Z,102455.22
2023-03-02T19:48:16.200Z,102448.13
2023-03-02T19:50:45.386Z,102452.69
2023-03-02T19:53:13.562Z,102452.88
2023-03-02T19:55:43.571Z,102461.06
2023-03-02T19:58:17.270Z,102463.00
2023-03-02T20:00:45.794Z,102455.03
2023-03-02T20:03:14.078Z,102460.16
2023-03-02T20:05:41.802Z,102458.41
2023-03-02T20:08:09.849Z,102461.56
2023-03-02T20:10:40.657Z,102461.69
2023-03-02T20:13:10.669Z,102473.47
2023-03-02T20:15:40.412Z,102474.53
2023-03-02T20:18:10.918Z,102477.31
2023-03-02T20:20:38.721Z,102476.53
2023-03-02T20:23:06.872Z,102470.41
2023-03-02T20:25:36.461Z,102476.78
2023-03-02T20:28:05.808Z,102478.66
2023-03-02T20:30:38.603Z,102476.84
2023-03-02T20:33:08.400Z,102475.16
2023-03-02T20:35:40.898Z,102485.03
2023-03-02T20:38:11.206Z,102477.00
2023-03-02T20:40:39.047Z,102475.44
2023-03-02T20:43:07.247Z,102483.63
2023-03-02T20:45:40.869Z,102485.56
2023-03-02T20:48:09.298Z,102482.88
2023-03-02T20:50:40.476Z,102486.47
2023-03-02T20:53:11.567Z,102488.25
2023-03-02T20:55:39.781Z,102484.84
2023-03-02T20:58:07.637Z,102494.69
2023-03-02T21:00:38.157Z,102485.94
2023-03-02T21:03:07.233Z,102484.16
2023-03-02T21:05:37.150Z,102489.75
2023-03-02T21:08:05.851Z,102487.97
2023-03-02T21:10:37.982Z,102492.44
2023-03-02T21:13:07.629Z,102490.59
2023-03-02T21:15:37.409Z,102499.47
2023-03-02T21:18:05.649Z,102497.81
2023-03-02T21:20:38.154Z,102498.72
2023-03-02T21:23:05.967Z,102492.56
2023-03-02T21:25:34.496Z,102493.56
2023-03-02T21:28:02.298Z,102494.56
2023-03-02T21:30:34.066Z,102498.13
2023-03-02T21:33:03.704Z,102500.91
2023-03-02T21:35:34.296Z,102495.59
2023-03-02T21:38:05.044Z,102498.38
2023-03-02T21:40:37.582Z,102497.50
2023-03-02T21:43:06.812Z,102508.38
2023-03-02T21:45:35.913Z,102502.50
2023-03-02T21:48:05.546Z,102506.13
2023-03-02T21:50:36.681Z,102500.84
2023-03-02T21:53:05.257Z,102504.50
2023-03-02T21:55:33.620Z,102506.38
2023-03-02T21:58:01.944Z,102504.66
2023-03-02T22:00:32.660Z,102513.66
2023-03-02T22:03:01.170Z,102497.75
2023-03-02T22:05:30.525Z,102507.59
2023-03-02T22:07:58.612Z,102509.47
2023-03-02T22:10:31.859Z,102496.19
2023-03-02T22:13:15.632Z,102498.94
2023-03-02T22:15:43.401Z,102492.66
2023-03-02T22:18:12.980Z,102490.03
2023-03-02T22:20:45.092Z,102496.31
2023-03-02T22:23:14.523Z,102490.97
2023-03-02T22:25:44.289Z,102496.31
2023-03-02T22:28:17.967Z,102502.72
2023-03-02T22:30:46.381Z,102497.38
2023-03-02T22:33:19.883Z,102497.50
2023-03-02T22:35:49.680Z,102505.63
2023-03-02T22:38:25.281Z,102504.94
2023-03-02T22:40:53.865Z,102505.09
2023-03-02T22:43:25.951Z,102518.59
2023-03-02T22:45:54.266Z,102513.44
2023-03-02T22:48:25.559Z,102513.41
2023-03-02T22:50:55.042Z,102517.03
2023-03-02T22:53:30.045Z,102511.66
2023-03-02T22:56:00.437Z,102519.69
2023-03-02T22:58:46.039Z,102511.69
2023-03-02T23:01:23.071Z,102520.69
2023-03-02T23:03:53.272Z,102521.53
2023-03-02T23:06:30.778Z,102522.69
2023-03-02T23:09:00.393Z,102518.31
2023-03-02T23:11:29.635Z,102511.25
2023-03-02T23:13:57.489Z,102512.22
2023-03-02T23:16:27.110Z,102506.06
2023-03-02T23:18:57.132Z,102504.19
2023-03-02T23:21:28.972Z,102510.41
2023-03-02T23:23:56.821Z,102509.56
2023-03-02T23:26:24.624Z,102506.00
2023-03-02T23:28:52.564Z,102516.78
2023-03-02T23:31:21.234Z,102509.66
2023-03-02T23:33:49.412Z,102520.41
2023-03-02T23:36:17.701Z,102524.88
2023-03-02T23:38:46.826Z,102523.22
2023-03-02T23:41:15.078Z,102522.38
2023-03-02T23:43:42.869Z,102531.38
2023-03-02T23:46:13.999Z,102532.38
2023-03-02T23:48:41.960Z,102532.44
2023-03-02T23:51:09.782Z,102538.75
2023-03-02T23:53:37.624Z,102529.00
2023-03-02T23:56:07.842Z,102530.84
2023-03-02T23:58:35.585Z,102530.03
